Terminal Aerodrome Forecast
Issued by NWS Cleveland, OH

Home | Current Version | Previous Version | Text Only | Print | Product List | Glossary On
Versions: 1 2 3 4 5 6 7 8 9 10 11 12 13 14 15 16 17
066
FTUS41 KCLE 300627 AAA
TAFYNG
TAF AMD
KYNG 300627Z 3006/3106 25008KT P6SM VCSH BKN040 OVC090
      TEMPO 3006/3007 -SHRA BKN030
     FM301100 20007KT P6SM SCT050
     FM301700 25012G20KT P6SM SCT070=

USA.gov is the U.S. government's official web portal to all federal, state and local government web resources and services.